Time;durP1;ratioP1;P1;durP2;ratioP2;P2;SDS_P1;SDS_P2;PMS_P1;PMS_P2;Temp;Humidity;BMP_temperature;BMP_pressure;BME280_temperature;BME280_humidity;BME280_pressure;Samples;Min_cycle;Max_cycle;Signal;HPM_P1;HPM_P2
2021/03/09 00:00:29;;;;;;;11.55;7.17;;;;;;;-3.58;60.53;100449.39;1768395;81;20998;-54
2021/03/09 00:03:02;;;;;;;13.25;7.80;;;;;;;-3.57;60.44;100438.98;1768456;81;21616;-54
2021/03/09 00:05:37;;;;;;;9.05;6.53;;;;;;;-3.58;60.54;100444.54;1768553;81;21205;-54
2021/03/09 00:08:10;;;;;;;11.22;8.53;;;;;;;-3.54;60.38;100447.20;1767592;81;21078;-54
2021/03/09 00:10:40;;;;;;;11.45;8.70;;;;;;;-3.52;60.37;100450.52;1767865;81;21050;-53
2021/03/09 00:13:09;;;;;;;12.18;8.60;;;;;;;-3.50;60.22;100448.48;1764595;81;21038;-54
2021/03/09 00:15:40;;;;;;;10.72;8.08;;;;;;;-3.51;60.46;100441.46;1764117;81;20952;-54
2021/03/09 00:18:11;;;;;;;10.95;7.92;;;;;;;-3.54;60.47;100457.42;1701196;84;21193;-54
2021/03/09 00:20:46;;;;;;;9.63;7.12;;;;;;;-3.56;60.55;100451.38;1764449;81;21065;-53
2021/03/09 00:23:13;;;;;;;10.00;7.83;;;;;;;-3.53;60.77;100447.50;1701081;84;21004;-54
2021/03/09 00:25:46;;;;;;;12.05;8.80;;;;;;;-3.51;60.81;100451.68;1763887;81;21062;-54
2021/03/09 00:28:23;;;;;;;12.18;7.85;;;;;;;-3.53;60.84;100442.98;1764534;81;21111;-53
2021/03/09 00:30:50;;;;;;;12.83;8.37;;;;;;;-3.56;61.05;100448.69;1701524;84;21419;-55
2021/03/09 00:33:19;;;;;;;12.05;7.60;;;;;;;-3.53;60.90;100446.16;1764032;80;21083;-53
2021/03/09 00:35:52;;;;;;;14.53;12.75;;;;;;;-3.55;61.00;100447.69;1700561;84;21050;-53
2021/03/09 00:38:29;;;;;;;9.38;6.92;;;;;;;-3.51;61.32;100444.14;1763990;81;22162;-53
2021/03/09 00:40:59;;;;;;;11.70;8.10;;;;;;;-3.48;61.13;100451.83;1700324;84;21067;-53
2021/03/09 00:43:26;;;;;;;14.25;8.13;;;;;;;-3.46;61.48;100447.11;1763614;81;21609;-53
2021/03/09 00:45:56;;;;;;;15.15;8.45;;;;;;;-3.42;61.42;100451.11;1700714;84;21502;-53
2021/03/09 00:48:26;;;;;;;14.28;8.33;;;;;;;-3.37;61.67;100449.21;1763963;81;21051;-53
2021/03/09 00:50:56;;;;;;;10.65;8.03;;;;;;;-3.36;61.54;100451.74;1763743;81;21059;-53
2021/03/09 00:53:26;;;;;;;11.35;8.28;;;;;;;-3.33;61.52;100449.17;1700438;84;21010;-53
2021/03/09 00:55:55;;;;;;;10.15;7.20;;;;;;;-3.28;61.45;100460.22;1762680;80;21046;-53
2021/03/09 00:58:22;;;;;;;10.95;7.50;;;;;;;-3.26;61.31;100454.15;1700455;84;21095;-54
2021/03/09 01:00:56;;;;;;;10.48;7.37;;;;;;;-3.23;61.34;100449.78;1763547;81;21074;-53
2021/03/09 01:03:36;;;;;;;12.18;7.67;;;;;;;-3.22;61.15;100459.48;1700447;84;20980;-53
2021/03/09 01:06:10;;;;;;;11.18;6.75;;;;;;;-3.22;61.18;100458.14;1763969;81;21075;-53
2021/03/09 01:08:39;;;;;;;11.57;7.25;;;;;;;-3.25;61.45;100457.17;1700373;84;21278;-53
2021/03/09 01:11:10;;;;;;;10.35;7.72;;;;;;;-3.27;61.37;100449.81;1700612;84;21071;-53
2021/03/09 01:13:41;;;;;;;12.88;8.03;;;;;;;-3.25;61.59;100454.48;1763675;81;21003;-53
2021/03/09 01:16:11;;;;;;;12.82;8.15;;;;;;;-3.23;61.83;100456.50;1700424;84;21071;-53
2021/03/09 01:18:39;;;;;;;9.78;7.05;;;;;;;-3.18;61.90;100458.63;1763656;81;20980;-53
2021/03/09 01:21:07;;;;;;;9.53;6.75;;;;;;;-3.16;61.67;100454.75;1700672;84;21290;-52
2021/03/09 01:23:35;;;;;;;10.15;7.17;;;;;;;-3.17;62.13;100457.09;1764035;81;21039;-53
2021/03/09 01:26:03;;;;;;;10.65;6.65;;;;;;;-3.16;62.89;100457.92;1700487;84;21614;-53
2021/03/09 01:28:31;;;;;;;9.55;6.15;;;;;;;-3.13;63.12;100465.13;1763637;81;21258;-53
2021/03/09 01:31:01;;;;;;;7.40;6.42;;;;;;;-3.09;62.90;100462.89;1700460;84;20952;-52
2021/03/09 01:33:31;;;;;;;8.53;6.40;;;;;;;-3.06;62.66;100463.04;1763856;80;21368;-53
2021/03/09 01:36:01;;;;;;;8.00;6.42;;;;;;;-3.04;62.88;100461.02;1700508;84;21023;-53
2021/03/09 01:38:36;;;;;;;11.90;6.40;;;;;;;-3.01;62.72;100467.37;1700845;83;20972;-53
2021/03/09 01:41:10;;;;;;;8.60;6.37;;;;;;;-3.01;62.86;100474.09;1700628;84;21079;-52
2021/03/09 01:43:47;;;;;;;7.42;6.20;;;;;;;-3.01;62.93;100472.75;1763900;81;21640;-53
2021/03/09 01:46:19;;;;;;;6.67;5.95;;;;;;;-3.02;63.26;100464.34;1700723;84;21133;-53
2021/03/09 01:48:50;;;;;;;8.23;5.92;;;;;;;-3.06;63.18;100467.08;1700252;84;21071;-53
2021/03/09 01:51:19;;;;;;;7.20;6.00;;;;;;;-3.04;63.12;100464.53;1763833;81;21058;-53
2021/03/09 01:53:47;;;;;;;8.48;6.10;;;;;;;-2.99;63.09;100469.36;1700555;84;21007;-53
2021/03/09 01:56:22;;;;;;;6.37;5.67;;;;;;;-2.98;63.03;100465.13;1741331;81;21150;-52
2021/03/09 02:01:34;;;;;;;6.75;5.80;;;;;;;-2.83;62.81;100467.00;1845634;76;28333;-53
2021/03/09 02:04:08;;;;;;;7.72;6.03;;;;;;;-2.90;62.67;100470.10;1814987;79;21045;-53
2021/03/09 02:06:35;;;;;;;6.90;5.85;;;;;;;-2.93;62.39;100469.12;1815946;79;21196;-53
2021/03/09 02:09:05;;;;;;;8.03;6.30;;;;;;;-2.95;62.81;100469.31;1816432;79;21041;-53
2021/03/09 02:11:40;;;;;;;9.20;6.47;;;;;;;-2.95;62.64;100476.03;1806025;78;21516;-53
2021/03/09 02:14:20;;;;;;;8.95;6.20;;;;;;;-2.92;62.56;100486.94;1783624;80;21029;-53
2021/03/09 02:17:17;;;;;;;7.95;5.85;;;;;;;-2.92;62.64;100493.14;1783723;80;21356;-53
2021/03/09 02:20:18;;;;;;;8.60;6.42;;;;;;;-2.93;62.68;100487.94;1783881;80;21151;-53
2021/03/09 02:23:18;;;;;;;9.53;6.28;;;;;;;-2.86;62.33;100491.56;1783836;80;21041;-53
2021/03/09 02:26:34;;;;;;;8.95;6.33;;;;;;;-2.83;62.10;100488.02;1776182;80;21013;-54
2021/03/09 02:29:27;;;;;;;9.88;6.37;;;;;;;-2.85;62.15;100495.94;1783599;80;21013;-53
2021/03/09 02:31:55;;;;;;;9.70;6.30;;;;;;;-2.82;61.66;100496.39;1783935;80;21025;-53
2021/03/09 02:34:31;;;;;;;9.03;5.90;;;;;;;-2.87;61.97;100504.19;1783958;80;21368;-53
2021/03/09 02:37:04;;;;;;;11.03;6.72;;;;;;;-2.84;62.10;100501.13;1783757;80;20977;-53
2021/03/09 02:39:37;;;;;;;8.70;6.83;;;;;;;-2.83;62.26;100504.64;1783865;80;21029;-53
2021/03/09 02:42:08;;;;;;;10.65;6.08;;;;;;;-2.83;62.28;100507.33;1782345;80;21093;-54
2021/03/09 02:44:36;;;;;;;9.08;6.37;;;;;;;-2.82;62.27;100502.28;1783904;80;21057;-53
2021/03/09 02:47:04;;;;;;;9.80;6.35;;;;;;;-2.81;62.10;100503.96;1783934;80;22817;-53
2021/03/09 02:49:33;;;;;;;10.90;6.15;;;;;;;-2.75;61.94;100505.08;1783931;80;21690;-53
2021/03/09 02:52:05;;;;;;;11.50;6.30;;;;;;;-2.70;61.81;100512.06;1783915;80;21801;-53
2021/03/09 02:54:35;;;;;;;6.97;5.95;;;;;;;-2.70;61.53;100510.73;1783831;80;21077;-53
2021/03/09 02:57:05;;;;;;;9.15;6.58;;;;;;;-2.74;61.72;100507.59;1784062;80;21588;-53
2021/03/09 02:59:34;;;;;;;9.78;6.58;;;;;;;-2.75;61.96;100509.94;1783993;80;21375;-52
2021/03/09 03:02:13;;;;;;;7.75;6.00;;;;;;;-2.72;62.08;100512.78;1783687;80;21017;-53
2021/03/09 03:04:42;;;;;;;8.08;6.45;;;;;;;-2.70;62.21;100508.03;1783670;80;20974;-55
2021/03/09 03:07:13;;;;;;;9.78;6.30;;;;;;;-2.69;62.23;100511.88;1783322;79;21025;-53
2021/03/09 03:09:41;;;;;;;7.80;5.85;;;;;;;-2.67;62.18;100511.70;1783872;80;20986;-53
2021/03/09 03:12:12;;;;;;;8.68;6.37;;;;;;;-2.66;62.35;100509.34;1782364;79;21227;-53
2021/03/09 03:14:44;;;;;;;11.50;5.95;;;;;;;-2.68;61.96;100520.80;1783325;80;20993;-53
2021/03/09 03:17:14;;;;;;;8.63;6.33;;;;;;;-2.70;62.07;100520.13;1783335;80;21006;-53
2021/03/09 03:19:45;;;;;;;8.13;5.55;;;;;;;-2.73;62.39;100524.54;1781997;80;21073;-53
2021/03/09 03:22:12;;;;;;;8.03;5.92;;;;;;;-2.75;62.69;100520.70;1783300;80;21009;-53
2021/03/09 03:24:46;;;;;;;7.72;5.85;;;;;;;-2.76;62.69;100530.29;1783299;80;21422;-53
2021/03/09 03:27:19;;;;;;;7.37;5.58;;;;;;;-2.75;63.16;100527.41;1783331;80;21061;-53
2021/03/09 03:29:47;;;;;;;6.75;5.53;;;;;;;-2.76;63.11;100525.73;1783171;80;20974;-53
2021/03/09 03:32:19;;;;;;;6.55;5.33;;;;;;;-2.75;63.06;100526.07;1783092;80;21258;-53
2021/03/09 03:34:47;;;;;;;8.50;5.95;;;;;;;-2.78;63.05;100531.30;1753819;80;21021;-53
2021/03/09 03:40:00;;;;;;;8.80;6.25;;;;;;;-2.74;63.52;100536.30;1846142;76;28609;-53
2021/03/09 03:42:28;;;;;;;7.50;5.75;;;;;;;-2.81;63.63;100542.42;1816055;79;21010;-53
2021/03/09 03:45:00;;;;;;;6.62;5.85;;;;;;;-2.81;63.72;100549.66;1816122;78;22577;-53
2021/03/09 03:47:30;;;;;;;7.65;5.90;;;;;;;-2.79;63.38;100553.00;1815981;79;21046;-53
2021/03/09 03:50:04;;;;;;;6.67;5.33;;;;;;;-2.75;63.23;100548.10;1813260;79;21167;-53
2021/03/09 03:52:42;;;;;;;6.10;5.35;;;;;;;-2.75;62.80;100548.10;1816217;79;21483;-53
2021/03/09 03:55:24;;;;;;;6.45;5.00;;;;;;;-2.75;62.54;100550.27;1816056;79;21678;-54
2021/03/09 03:57:54;;;;;;;6.90;5.08;;;;;;;-2.77;61.04;100561.73;1769311;79;22252;-53
2021/03/09 04:00:24;;;;;;;5.78;5.12;;;;;;;-2.79;60.72;100565.95;1815903;79;21041;-53
2021/03/09 04:02:54;;;;;;;6.72;5.37;;;;;;;-2.79;60.51;100569.98;1816313;78;21037;-53
2021/03/09 04:05:32;;;;;;;6.60;5.87;;;;;;;-2.76;59.99;100570.62;1815784;78;21639;-53
2021/03/09 04:08:00;;;;;;;15.00;8.80;;;;;;;-2.76;60.14;100567.93;1815257;78;21029;-53
2021/03/09 04:10:44;;;;;;;14.47;11.90;;;;;;;-2.66;60.32;100567.16;1775434;79;28228;-53
2021/03/09 04:13:12;;;;;;;20.00;13.38;;;;;;;-2.68;60.25;100570.55;1718079;83;21046;-53
2021/03/09 04:15:44;;;;;;;23.70;18.52;;;;;;;-2.65;60.33;100577.73;1689255;83;21039;-53
2021/03/09 04:18:19;;;;;;;14.83;12.10;;;;;;;-2.63;60.48;100577.55;1717840;83;21014;-53
2021/03/09 04:20:52;;;;;;;12.80;9.90;;;;;;;-2.63;60.19;100578.88;1718135;83;21018;-53
2021/03/09 04:23:17;;;;;;;18.73;12.23;;;;;;;-2.63;60.31;100582.92;1717922;83;20979;-53
2021/03/09 04:25:46;;;;;;;15.98;10.70;;;;;;;-2.64;60.17;100592.03;1689992;83;20974;-53
2021/03/09 04:28:24;;;;;;;16.35;9.83;;;;;;;-2.62;60.27;100586.77;1717997;83;21213;-53
2021/03/09 04:31:05;;;;;;;16.15;9.33;;;;;;;-2.61;59.93;100588.97;1690510;83;21006;-53
2021/03/09 04:33:32;;;;;;;22.02;10.90;;;;;;;-2.57;59.89;100584.90;1715001;83;21042;-53
2021/03/09 04:36:01;;;;;;;17.82;9.00;;;;;;;-2.50;59.91;100594.39;1689823;83;21073;-52
2021/03/09 04:38:28;;;;;;;31.07;16.67;;;;;;;-2.50;59.12;100596.59;1717985;83;21033;-55
2021/03/09 04:40:58;;;;;;;25.52;13.08;;;;;;;-2.54;58.85;100592.59;1717935;83;21288;-53
2021/03/09 04:43:33;;;;;;;17.07;8.75;;;;;;;-2.54;59.18;100595.28;1691818;83;21060;-55
2021/03/09 04:46:01;;;;;;;14.87;8.28;;;;;;;-2.53;58.77;100594.28;1718014;83;21561;-55
2021/03/09 04:48:31;;;;;;;34.25;19.25;;;;;;;-2.58;58.60;100598.01;1717376;83;21049;-55
2021/03/09 04:51:11;;;;;;;29.95;16.62;;;;;;;-2.60;58.94;100606.78;1717940;83;21029;-53
2021/03/09 04:53:45;;;;;;;27.93;14.58;;;;;;;-2.56;59.25;100600.52;1717945;83;21639;-55
2021/03/09 04:56:15;;;;;;;17.00;11.00;;;;;;;-2.57;59.10;100608.25;1717497;83;21030;-55
2021/03/09 04:58:51;;;;;;;16.97;10.40;;;;;;;-2.56;59.02;100614.79;1717613;83;21046;-55
2021/03/09 05:01:16;;;;;;;20.65;8.90;;;;;;;-2.54;58.80;100615.45;1717144;83;21029;-55
2021/03/09 05:03:49;;;;;;;19.55;11.45;;;;;;;-2.53;58.60;100613.10;1717998;83;21069;-55
2021/03/09 05:06:16;;;;;;;17.52;10.10;;;;;;;-2.50;58.56;100620.80;1717906;83;21448;-52
2021/03/09 05:08:43;;;;;;;28.52;15.50;;;;;;;-2.47;58.89;100621.78;1717706;83;21050;-52
2021/03/09 05:11:24;;;;;;;21.33;11.40;;;;;;;-2.45;58.45;100621.59;1718514;83;21419;-53
2021/03/09 05:13:49;;;;;;;;;;;;;;;-2.43;58.48;100631.65;1720605;83;21057;-53
2021/03/09 05:16:16;;;;;;;16.37;9.78;;;;;;;-2.43;58.66;100632.98;1718436;83;20176;-53
2021/03/09 05:18:44;;;;;;;16.60;8.90;;;;;;;-2.45;58.72;100642.59;1718334;83;21214;-53
2021/03/09 05:21:18;;;;;;;11.57;8.23;;;;;;;-2.41;58.58;100642.22;1717086;83;21113;-53
2021/03/09 05:23:52;;;;;;;14.28;8.05;;;;;;;-2.38;58.56;100643.23;1718040;83;21006;-54
2021/03/09 05:26:26;;;;;;;14.18;8.35;;;;;;;-2.37;58.45;100648.42;1718080;83;21013;-55
2021/03/09 05:28:53;;;;;;;16.80;6.92;;;;;;;-2.38;58.53;100649.44;1718427;83;21002;-55
2021/03/09 05:31:25;;;;;;;16.05;7.40;;;;;;;-2.37;59.29;100651.60;1718161;83;21210;-55
2021/03/09 05:33:53;;;;;;;13.80;10.23;;;;;;;-2.36;59.55;100660.01;1717769;83;21066;-54
2021/03/09 05:36:34;;;;;;;24.75;14.40;;;;;;;-2.34;59.65;100660.69;1717577;83;21045;-53
2021/03/09 05:39:03;;;;;;;27.42;14.05;;;;;;;-2.33;60.41;100673.95;1718292;83;21599;-53
2021/03/09 05:41:34;;;;;;;30.68;17.98;;;;;;;-2.33;61.75;100683.86;1718170;83;21381;-53
2021/03/09 05:44:03;;;;;;;36.05;20.72;;;;;;;-2.39;62.51;100669.80;1718023;83;21211;-53
2021/03/09 05:46:31;;;;;;;25.27;16.48;;;;;;;-2.42;63.34;100676.38;1717627;83;21049;-53
2021/03/09 05:49:07;;;;;;;27.40;18.25;;;;;;;-2.43;63.82;100682.76;1717820;83;21628;-53
2021/03/09 05:51:38;;;;;;;;;;;;;;;-2.44;64.22;100690.01;1720599;83;21514;-54
2021/03/09 05:54:09;;;;;;;16.12;11.22;;;;;;;-2.41;64.59;100691.98;1718034;83;20124;-54
2021/03/09 05:56:36;;;;;;;10.28;7.90;;;;;;;-2.44;64.81;100699.94;1718373;83;21604;-54
2021/03/09 05:59:07;;;;;;;12.37;8.85;;;;;;;-2.44;65.05;100704.80;1717989;83;21188;-54
2021/03/09 06:01:39;;;;;;;14.40;8.60;;;;;;;-2.44;65.36;100707.49;1716815;83;21069;-54
2021/03/09 06:04:10;;;;;;;9.85;7.70;;;;;;;-2.41;65.45;100721.09;1718056;83;21049;-53
2021/03/09 06:06:44;;;;;;;9.45;7.60;;;;;;;-2.41;65.55;100724.27;1718287;83;21009;-54
2021/03/09 06:09:36;;;;;;;10.78;7.62;;;;;;;-2.42;65.87;100724.80;1716897;83;21604;-53
2021/03/09 06:15:01;;;;;;;9.08;7.22;;;;;;;-2.51;65.99;100728.58;1888174;76;28211;-55
2021/03/09 06:17:35;;;;;;;7.12;6.42;;;;;;;-2.58;66.08;100731.14;1859174;77;20998;-53
2021/03/09 06:20:07;;;;;;;10.90;8.10;;;;;;;-2.58;65.79;100737.87;1856264;77;21270;-54
2021/03/09 06:22:41;;;;;;;10.58;9.10;;;;;;;-2.53;65.90;100742.22;1856167;77;21009;-53
2021/03/09 06:25:15;;;;;;;20.20;9.08;;;;;;;-2.46;65.80;100743.66;1858824;77;20946;-53
2021/03/09 06:27:46;;;;;;;10.98;9.10;;;;;;;-2.38;65.62;100745.46;1859156;77;20994;-55
2021/03/09 06:30:32;;;;;;;11.78;9.63;;;;;;;-2.31;65.55;100750.45;1858888;77;21009;-55
2021/03/09 06:33:01;;;;;;;;;;;;;;;-2.22;65.67;100752.56;1861599;77;21428;-54
2021/03/09 06:35:37;;;;;;;17.45;11.55;;;;;;;-2.20;65.56;100753.20;1858840;77;20142;-54
2021/03/09 06:38:30;;;;;;;17.65;12.47;;;;;;;-2.18;65.70;100759.26;1858973;77;20985;-54
2021/03/09 06:41:15;;;;;;;18.00;12.65;;;;;;;-2.18;65.78;100756.05;1858791;77;21034;-54
2021/03/09 06:44:00;;;;;;;22.13;14.30;;;;;;;-2.17;65.91;100763.11;1858381;77;21017;-54
2021/03/09 06:46:28;;;;;;;16.45;12.07;;;;;;;-2.13;65.98;100762.22;1858646;77;21192;-54
2021/03/09 06:49:02;;;;;;;13.48;9.28;;;;;;;-2.06;66.03;100767.73;1858770;77;21033;-54
2021/03/09 06:51:36;;;;;;;11.68;8.10;;;;;;;-1.99;65.51;100772.19;1859037;77;21018;-53
2021/03/09 06:54:18;;;;;;;18.20;11.15;;;;;;;-1.96;65.05;100770.99;1854773;77;21188;-54
2021/03/09 06:56:46;;;;;;;9.73;8.15;;;;;;;-1.94;64.57;100771.14;1774984;79;21073;-56
2021/03/09 06:59:24;;;;;;;14.45;9.43;;;;;;;-1.88;63.90;100775.48;1785291;79;21303;-55
2021/03/09 07:02:08;;;;;;;12.82;8.85;;;;;;;-1.86;63.32;100774.25;1834088;77;21066;-55
2021/03/09 07:04:40;;;;;;;11.78;8.85;;;;;;;-1.76;63.33;100784.77;1830680;77;21582;-54
2021/03/09 07:07:14;;;;;;;21.25;11.12;;;;;;;-1.64;62.31;100788.70;1781263;79;21049;-53
2021/03/09 07:09:56;;;;;;;17.95;12.10;;;;;;;-1.55;61.77;100785.92;1791857;78;21144;-55
2021/03/09 07:12:39;;;;;;;14.60;10.08;;;;;;;-1.41;60.91;100793.18;1817889;76;29872;-55
2021/03/09 07:15:09;;;;;;;17.10;12.20;;;;;;;-1.42;60.46;100793.67;1802689;79;21069;-52
2021/03/09 07:17:39;;;;;;;13.65;10.95;;;;;;;-1.43;60.23;100800.11;1801558;79;21259;-55
2021/03/09 07:20:14;;;;;;;14.35;7.75;;;;;;;-1.34;60.36;100806.23;1805328;79;21568;-56
2021/03/09 07:22:45;;;;;;;11.35;8.33;;;;;;;-1.26;59.86;100798.55;1801384;78;21079;-55
2021/03/09 07:25:15;;;;;;;12.90;9.03;;;;;;;-1.25;59.69;100801.59;1793435;79;21001;-55
2021/03/09 07:28:10;;;;;;;12.55;8.98;;;;;;;-1.28;59.61;100796.58;1782054;78;22253;-54
2021/03/09 07:30:42;;;;;;;26.60;12.68;;;;;;;-1.29;59.69;100794.89;1780572;78;21576;-56
2021/03/09 07:33:10;;;;;;;21.15;13.68;;;;;;;-1.31;59.30;100798.30;1780573;78;21683;-56
2021/03/09 07:35:42;;;;;;;24.20;11.48;;;;;;;-1.25;59.14;100786.77;1719865;78;21163;-56
2021/03/09 07:38:18;;;;;;;36.23;19.57;;;;;;;-1.13;59.12;100793.36;1777348;78;21038;-54
2021/03/09 07:40:52;;;;;;;22.22;13.72;;;;;;;-1.08;58.46;100789.58;1781452;79;21043;-55
2021/03/09 07:43:20;;;;;;;21.80;13.95;;;;;;;-1.06;58.70;100789.39;1736504;80;21273;-57
2021/03/09 07:45:48;;;;;;;30.02;15.63;;;;;;;-0.98;58.63;100791.16;1779154;79;21123;-57
2021/03/09 07:48:21;;;;;;;19.62;12.68;;;;;;;-0.91;58.63;100789.38;1776002;79;21330;-56
2021/03/09 07:50:52;;;;;;;20.95;11.78;;;;;;;-0.86;57.87;100789.63;1779393;79;20972;-56
2021/03/09 07:53:20;;;;;;;18.62;11.65;;;;;;;-0.88;57.38;100791.17;1718986;82;20995;-56
2021/03/09 07:56:12;;;;;;;28.17;17.07;;;;;;;-0.90;56.80;100785.14;1725009;81;21263;-56
2021/03/09 07:58:48;;;;;;;16.05;11.75;;;;;;;-0.87;57.14;100783.94;1777618;79;20994;-56
2021/03/09 08:03:52;;;;;;;21.77;10.27;;;;;;;-0.76;56.35;100788.84;1841327;75;27924;-55
2021/03/09 08:06:21;;;;;;;17.75;9.30;;;;;;;-0.83;57.35;100796.52;1781606;78;20977;-55
2021/03/09 08:08:55;;;;;;;12.75;9.40;;;;;;;-0.98;58.51;100797.38;1826121;76;22750;-54
2021/03/09 08:11:32;;;;;;;13.03;9.48;;;;;;;-1.13;58.21;100797.41;1828078;76;20938;-54
2021/03/09 08:14:19;;;;;;;14.38;10.38;;;;;;;-1.34;59.51;100804.89;1827034;76;21691;-55
2021/03/09 08:16:50;;;;;;;16.57;11.43;;;;;;;-1.58;59.81;100791.99;1829221;76;20981;-56
2021/03/09 08:19:30;;;;;;;15.60;10.70;;;;;;;-1.74;59.96;100796.22;1826317;76;20961;-55
2021/03/09 08:22:08;;;;;;;23.62;17.40;;;;;;;-1.87;60.06;100806.27;1825538;76;20973;-56
2021/03/09 08:24:47;;;;;;;14.87;10.08;;;;;;;-1.99;60.05;100807.70;1825516;76;20993;-56
2021/03/09 08:27:31;;;;;;;15.45;11.78;;;;;;;-1.98;60.54;100813.43;1829664;76;20993;-55
2021/03/09 08:30:24;;;;;;;17.87;12.90;;;;;;;-1.92;60.35;100807.31;1830429;76;20964;-55
2021/03/09 08:33:26;;;;;;;15.93;10.72;;;;;;;-1.68;60.02;100808.11;1782813;78;29541;-56
2021/03/09 08:35:56;;;;;;;20.08;11.57;;;;;;;-1.69;59.57;100809.13;1757583;79;20992;-55
2021/03/09 08:38:35;;;;;;;34.65;15.50;;;;;;;-1.57;59.07;100816.58;1854594;75;28594;-55
2021/03/09 08:41:05;;;;;;;26.95;15.40;;;;;;;-1.60;59.41;100826.38;1825489;76;21130;-55
2021/03/09 08:43:33;;;;;;;52.90;27.17;;;;;;;-1.58;59.15;100816.77;1823389;76;21325;-55
2021/03/09 08:46:03;;;;;;;58.45;29.87;;;;;;;-1.66;59.64;100824.91;1836171;76;21061;-54
2021/03/09 08:48:53;;;;;;;19.00;12.20;;;;;;;-1.68;60.22;100822.41;1828868;76;22346;-55
2021/03/09 08:51:41;;;;;;;20.00;13.05;;;;;;;-1.69;60.81;100834.72;1835210;76;21541;-56
2021/03/09 08:54:28;;;;;;;40.40;25.40;;;;;;;-1.68;60.87;100824.27;1824157;76;20994;-55
2021/03/09 08:57:01;;;;;;;67.42;41.15;;;;;;;-1.64;59.81;100826.94;1832894;76;21184;-55
2021/03/09 08:59:32;;;;;;;43.78;22.85;;;;;;;-1.64;59.02;100835.84;1830744;76;21016;-56
2021/03/09 09:02:19;;;;;;;17.98;11.75;;;;;;;-1.63;59.02;100840.70;1826768;76;20977;-55
2021/03/09 09:04:55;;;;;;;17.90;9.18;;;;;;;-1.65;58.63;100844.11;1792393;78;20932;-55
2021/03/09 09:07:39;;;;;;;13.25;8.58;;;;;;;-1.68;58.11;100839.09;1781182;79;21514;-54
2021/03/09 09:10:23;;;;;;;19.35;11.43;;;;;;;-1.73;58.21;100840.96;1776925;78;22301;-55
2021/03/09 09:15:34;;;;;;;36.68;18.95;;;;;;;-1.55;58.68;100844.67;1862836;75;28727;-56
2021/03/09 09:18:06;;;;;;;26.85;15.80;;;;;;;-1.53;58.12;100844.49;1830770;77;21541;-56
2021/03/09 09:20:44;;;;;;;43.95;27.25;;;;;;;-1.45;58.16;100851.98;1828476;77;22253;-56
2021/03/09 09:23:23;;;;;;;27.10;20.08;;;;;;;-1.36;58.17;100847.34;1823613;77;20975;-56
2021/03/09 09:25:52;;;;;;;29.85;25.15;;;;;;;-1.26;57.63;100853.81;1834674;76;22012;-55
2021/03/09 09:28:27;;;;;;;22.27;19.87;;;;;;;-1.22;57.14;100854.59;1824855;76;21912;-55
2021/03/09 09:31:13;;;;;;;27.50;21.23;;;;;;;-1.20;56.15;100864.37;1829832;77;21008;-58
2021/03/09 09:33:53;;;;;;;32.63;25.95;;;;;;;-1.21;55.75;100860.84;1834024;76;21537;-56
2021/03/09 09:36:25;;;;;;;15.72;11.68;;;;;;;-1.18;55.26;100867.20;1829214;76;20958;-56
2021/03/09 09:38:56;;;;;;;18.95;12.00;;;;;;;-1.21;55.55;100860.84;1829819;76;20981;-54
2021/03/09 09:41:23;;;;;;;24.55;11.53;;;;;;;-1.20;55.68;100858.98;1834975;76;20961;-54
2021/03/09 09:43:51;;;;;;;16.23;10.28;;;;;;;-1.23;55.41;100865.56;1831542;77;20997;-55
2021/03/09 09:46:22;;;;;;;15.48;10.05;;;;;;;-1.24;56.45;100871.48;1803608;77;21548;-55
2021/03/09 09:48:51;;;;;;;14.28;11.68;;;;;;;-1.22;56.72;100878.03;1827414;76;20995;-57
2021/03/09 09:51:29;;;;;;;22.58;13.50;;;;;;;-1.18;56.18;100881.20;1829224;76;20962;-55
2021/03/09 09:54:10;;;;;;;21.97;10.60;;;;;;;-1.19;55.88;100883.05;1826202;76;20993;-56
2021/03/09 09:56:37;;;;;;;18.57;13.28;;;;;;;-1.18;55.79;100882.56;1829420;76;20915;-56
2021/03/09 09:59:07;;;;;;;21.15;12.25;;;;;;;-1.14;55.44;100888.73;1825844;76;21301;-56
2021/03/09 10:01:40;;;;;;;26.45;17.15;;;;;;;-1.14;54.58;100883.87;1815653;78;21034;-56
2021/03/09 10:04:10;;;;;;;15.85;10.15;;;;;;;-1.11;55.25;100882.97;1835437;76;20982;-58
2021/03/09 10:06:49;;;;;;;19.17;11.80;;;;;;;-1.01;54.90;100883.22;1829710;76;21103;-57
2021/03/09 10:09:24;;;;;;;15.50;8.80;;;;;;;-0.97;54.61;100885.84;1788104;78;21542;-57
2021/03/09 10:12:09;;;;;;;12.93;8.05;;;;;;;-0.81;53.87;100885.67;1830831;75;28331;-56
2021/03/09 10:14:53;;;;;;;18.00;9.78;;;;;;;-0.80;54.16;100877.05;1814492;77;20982;-55
2021/03/09 10:17:21;;;;;;;29.60;12.75;;;;;;;-0.77;54.26;100876.18;1802535;77;21191;-57
2021/03/09 10:19:49;;;;;;;18.05;12.70;;;;;;;-0.84;53.68;100871.70;1808037;77;21021;-57
2021/03/09 10:22:20;;;;;;;59.48;43.95;;;;;;;-0.82;53.75;100879.11;1812981;77;21563;-56
2021/03/09 10:24:48;;;;;;;32.35;19.40;;;;;;;-0.77;52.90;100874.83;1804798;77;21642;-56
2021/03/09 10:27:25;;;;;;;23.32;14.68;;;;;;;-0.53;53.44;100873.69;1739979;82;20930;-56
2021/03/09 10:29:56;;;;;;;14.83;9.28;;;;;;;0.17;53.10;100875.85;1740650;80;21360;-55
2021/03/09 10:32:23;;;;;;;12.88;7.42;;;;;;;0.85;51.92;100874.01;1746129;79;21013;-55
2021/03/09 10:34:57;;;;;;;14.23;10.53;;;;;;;1.21;50.16;100878.38;1746357;79;21568;-55
2021/03/09 10:37:36;;;;;;;21.90;15.72;;;;;;;1.26;49.38;100875.91;1746573;79;20942;-55
2021/03/09 10:40:10;;;;;;;14.03;10.95;;;;;;;1.10;49.16;100881.64;1750590;79;20971;-56
2021/03/09 10:42:49;;;;;;;17.17;9.20;;;;;;;0.78;49.83;100884.77;1770094;79;22070;-56
2021/03/09 10:45:26;;;;;;;24.20;16.02;;;;;;;0.36;51.61;100887.89;1746193;80;21021;-57
2021/03/09 10:48:01;;;;;;;17.12;12.33;;;;;;;-0.12;53.35;100900.61;1803436;79;21443;-57
2021/03/09 10:50:42;;;;;;;17.42;11.73;;;;;;;-0.43;54.31;100899.03;1801287;77;21070;-55
2021/03/09 10:53:12;;;;;;;30.25;19.00;;;;;;;-0.75;55.46;100897.05;1809130;77;21069;-55
2021/03/09 10:55:40;;;;;;;26.82;16.27;;;;;;;-1.00;56.28;100911.34;1799432;77;21369;-56
2021/03/09 10:58:08;;;;;;;20.68;13.55;;;;;;;-1.24;57.65;100903.00;1807232;79;21416;-56
2021/03/09 11:00:35;;;;;;;22.05;15.13;;;;;;;-1.35;59.08;100902.09;1803208;77;21485;-56
2021/03/09 11:03:04;;;;;;;20.77;17.30;;;;;;;-1.42;59.94;100916.28;1801620;77;20977;-54
2021/03/09 11:05:35;;;;;;;40.43;32.08;;;;;;;-1.49;59.89;100909.95;1743759;82;20923;-55
2021/03/09 11:08:11;;;;;;;26.50;20.97;;;;;;;-1.53;60.37;100912.67;1746247;80;21207;-55
2021/03/09 11:10:44;;;;;;;19.62;14.70;;;;;;;-1.57;60.49;100901.44;1734962;80;21645;-54
2021/03/09 11:13:14;;;;;;;18.55;10.45;;;;;;;-1.56;60.29;100906.30;1719422;81;21017;-55
2021/03/09 11:15:41;;;;;;;21.57;11.57;;;;;;;-1.66;60.42;100904.38;1721903;82;21037;-56
2021/03/09 11:18:09;;;;;;;31.68;10.75;;;;;;;-1.58;60.89;100902.97;1719155;82;21014;-56
2021/03/09 11:20:39;;;;;;;17.30;12.40;;;;;;;-1.42;60.54;100906.84;1720875;82;21605;-55
2021/03/09 11:23:09;;;;;;;20.00;12.90;;;;;;;-1.23;59.62;100908.70;1746487;80;21014;-55
2021/03/09 11:25:37;;;;;;;26.77;14.23;;;;;;;-1.07;58.40;100908.55;1729484;80;21039;-57
2021/03/09 11:28:07;;;;;;;47.03;30.95;;;;;;;-0.93;57.51;100904.68;1762785;80;20932;-55
2021/03/09 11:30:36;;;;;;;40.60;24.02;;;;;;;-0.74;57.55;100910.05;1762807;80;21089;-58
2021/03/09 11:33:04;;;;;;;37.98;21.05;;;;;;;-0.43;56.75;100913.88;1770498;79;21476;-56
2021/03/09 11:35:35;;;;;;;72.72;56.10;;;;;;;-0.05;56.15;100905.56;1774156;80;21001;-56
2021/03/09 11:38:04;;;;;;;31.75;17.10;;;;;;;0.67;54.83;100901.04;1779121;79;20973;-57
2021/03/09 11:40:32;;;;;;;54.90;30.08;;;;;;;1.53;52.90;100892.28;1770303;80;20975;-56
2021/03/09 11:43:03;;;;;;;28.00;15.55;;;;;;;2.26;51.13;100901.12;1770634;79;21073;-56
2021/03/09 11:45:33;;;;;;;26.35;17.35;;;;;;;2.78;48.88;100892.36;1766914;79;21467;-55
2021/03/09 11:48:05;;;;;;;34.73;24.85;;;;;;;2.96;47.24;100896.62;1772115;80;22474;-56
2021/03/09 11:50:37;;;;;;;19.40;14.45;;;;;;;3.21;45.11;100900.00;1778457;79;20990;-57
2021/03/09 11:53:08;;;;;;;18.32;9.50;;;;;;;3.23;44.35;100898.75;1770228;80;20965;-56
2021/03/09 11:55:40;;;;;;;13.93;10.15;;;;;;;3.54;43.36;100894.98;1768011;80;21655;-55
2021/03/09 11:58:11;;;;;;;21.15;18.80;;;;;;;3.93;42.09;100898.55;1766378;79;21206;-56